Time;durP1;ratioP1;P1;durP2;ratioP2;P2;SDS_P1;SDS_P2;PMS_P1;PMS_P2;Temp;Humidity;BMP_temperature;BMP_pressure;BME280_temperature;BME280_humidity;BME280_pressure;Samples;Min_cycle;Max_cycle;Signal;HPM_P1;HPM_P2
2024/04/15 00:01:59;;;;;;;137.03;130.63;;;21.80;54.60;;;;;;5469253;26;21236;-65
2024/04/15 00:04:25;;;;;;;135.23;128.73;;;21.80;54.70;;;;;;5475322;26;20282;-66
2024/04/15 00:06:56;;;;;;;133.37;126.77;;;21.80;54.80;;;;;;5475506;26;20466;-66
2024/04/15 00:09:22;;;;;;;137.80;131.40;;;21.80;54.90;;;;;;5475877;26;20240;-66
2024/04/15 00:11:51;;;;;;;144.80;138.20;;;21.80;55.00;;;;;;5473867;26;21138;-66
2024/04/15 00:14:17;;;;;;;140.57;133.67;;;21.80;55.10;;;;;;5474555;26;20276;-66
2024/04/15 00:16:45;;;;;;;136.97;130.37;;;21.80;55.20;;;;;;5475369;26;20580;-65
2024/04/15 00:19:11;;;;;;;140.20;133.70;;;21.80;55.20;;;;;;5469565;26;20583;-66
2024/04/15 00:21:40;;;;;;;143.50;136.80;;;21.80;55.30;;;;;;5467973;26;20467;-65
2024/04/15 00:24:08;;;;;;;138.87;132.47;;;21.80;55.40;;;;;;5471361;26;20479;-66
2024/04/15 00:26:37;;;;;;;137.00;130.50;;;21.80;55.40;;;;;;5474384;26;20803;-66
2024/04/15 00:29:02;;;;;;;131.23;125.03;;;21.80;55.50;;;;;;5472242;26;20462;-66
2024/04/15 00:31:31;;;;;;;139.50;132.77;;;21.80;55.60;;;;;;5467944;26;20640;-66
2024/04/15 00:33:57;;;;;;;139.20;132.80;;;21.80;55.60;;;;;;5468232;26;20230;-66
2024/04/15 00:36:26;;;;;;;137.60;131.10;;;21.80;55.70;;;;;;5473600;26;20473;-66
2024/04/15 00:38:53;;;;;;;131.50;125.20;;;21.80;55.70;;;;;;5474098;26;20259;-66
2024/04/15 00:41:24;;;;;;;134.40;128.10;;;21.80;55.80;;;;;;5474344;26;20537;-66
2024/04/15 00:43:50;;;;;;;136.90;130.50;;;21.80;55.80;;;;;;5473482;26;20584;-66
2024/04/15 00:46:19;;;;;;;137.37;130.90;;;21.70;55.80;;;;;;5469088;26;20485;-66
2024/04/15 00:48:45;;;;;;;138.57;132.07;;;21.70;55.90;;;;;;5467529;26;20226;-66
2024/04/15 00:51:16;;;;;;;131.93;125.53;;;21.70;56.00;;;;;;5472175;26;21009;-66
2024/04/15 00:53:44;;;;;;;139.70;133.00;;;21.70;56.10;;;;;;5473033;26;20466;-67
2024/04/15 00:56:14;;;;;;;132.63;126.43;;;21.70;56.10;;;;;;5469582;26;20549;-66
2024/04/15 00:58:43;;;;;;;137.43;130.97;;;21.70;56.10;;;;;;5478003;26;20470;-66
2024/04/15 01:01:12;;;;;;;136.00;129.50;;;21.70;56.20;;;;;;5473645;26;21169;-67
2024/04/15 01:03:38;;;;;;;131.10;124.80;;;21.70;56.20;;;;;;5473135;26;20478;-66
2024/04/15 01:06:08;;;;;;;136.47;129.97;;;21.70;56.30;;;;;;5471233;26;20466;-66
2024/04/15 01:08:34;;;;;;;138.60;132.20;;;21.70;56.40;;;;;;5467395;26;20613;-66
2024/04/15 01:11:03;;;;;;;142.80;136.20;;;21.70;56.40;;;;;;5468307;26;20924;-66
2024/04/15 01:13:29;;;;;;;130.77;124.47;;;21.70;56.50;;;;;;5479525;26;20463;-66
2024/04/15 01:16:01;;;;;;;135.57;129.17;;;21.70;56.60;;;;;;5467404;26;20523;-66
2024/04/15 01:18:28;;;;;;;133.80;127.60;;;21.70;56.60;;;;;;5480879;26;20276;-66
2024/04/15 01:20:58;;;;;;;134.43;128.17;;;21.70;56.70;;;;;;5467420;26;21001;-66
2024/04/15 01:23:27;;;;;;;131.00;124.60;;;21.60;56.70;;;;;;5467222;26;20464;-66
2024/04/15 01:25:59;;;;;;;131.67;125.47;;;21.70;56.80;;;;;;5473525;26;20463;-66
2024/04/15 01:28:26;;;;;;;133.87;127.67;;;21.70;56.80;;;;;;5474144;26;20524;-66
2024/04/15 01:30:55;;;;;;;132.03;125.83;;;21.60;56.90;;;;;;5481378;26;20558;-65
2024/04/15 01:33:20;;;;;;;128.53;122.43;;;21.60;56.90;;;;;;5472704;26;20462;-66
2024/04/15 01:35:49;;;;;;;130.10;124.00;;;21.60;57.00;;;;;;5472232;26;20470;-65
2024/04/15 01:38:15;;;;;;;123.33;117.63;;;21.60;57.00;;;;;;5468323;26;20224;-66
2024/04/15 01:40:43;;;;;;;124.47;118.57;;;21.60;57.10;;;;;;5466888;26;20472;-65
2024/04/15 01:43:12;;;;;;;127.80;121.80;;;21.60;57.10;;;;;;5469850;26;20823;-66
2024/04/15 01:45:41;;;;;;;132.47;126.27;;;21.60;57.20;;;;;;5472952;26;20489;-66
2024/04/15 01:48:07;;;;;;;130.10;124.10;;;21.60;57.30;;;;;;5469665;26;20446;-66
2024/04/15 01:50:36;;;;;;;127.07;120.93;;;21.60;57.30;;;;;;5466801;26;20475;-65
2024/04/15 01:53:06;;;;;;;130.77;124.30;;;21.60;57.30;;;;;;5467414;26;20555;-65
2024/04/15 01:55:35;;;;;;;126.07;120.13;;;21.60;57.30;;;;;;5472929;26;20526;-66
2024/04/15 01:58:01;;;;;;;132.13;125.93;;;21.60;57.40;;;;;;5471310;26;20463;-65
2024/04/15 02:00:32;;;;;;;132.93;126.53;;;21.60;57.40;;;;;;5466823;26;20527;-65
2024/04/15 02:02:58;;;;;;;135.20;128.93;;;21.60;57.50;;;;;;5466087;26;20230;-65
2024/04/15 02:05:26;;;;;;;123.60;117.70;;;21.60;57.50;;;;;;5472858;26;20470;-66
2024/04/15 02:07:55;;;;;;;131.20;125.10;;;21.60;57.50;;;;;;5466367;26;20716;-66
2024/04/15 02:10:24;;;;;;;139.73;133.30;;;21.60;57.60;;;;;;5472288;26;20513;-66
2024/04/15 02:12:50;;;;;;;143.37;136.70;;;21.50;57.60;;;;;;5472176;26;20525;-65
2024/04/15 02:15:19;;;;;;;130.60;124.50;;;21.60;57.60;;;;;;5467821;26;20466;-66
2024/04/15 02:17:47;;;;;;;132.03;125.90;;;21.50;57.60;;;;;;5467138;26;20330;-66
2024/04/15 02:20:17;;;;;;;130.83;124.63;;;21.60;57.70;;;;;;5470062;26;20479;-65
2024/04/15 02:22:43;;;;;;;139.37;132.97;;;21.50;57.60;;;;;;5472059;26;20462;-65
2024/04/15 02:25:13;;;;;;;124.30;118.40;;;21.50;57.70;;;;;;5470172;26;20474;-66
2024/04/15 02:27:38;;;;;;;133.60;127.40;;;21.50;57.70;;;;;;5466075;26;20573;-65
2024/04/15 02:30:09;;;;;;;130.00;123.80;;;21.50;57.70;;;;;;5467757;26;20989;-65
2024/04/15 02:32:35;;;;;;;129.70;123.60;;;21.50;57.80;;;;;;5471822;26;20256;-66
2024/04/15 02:35:07;;;;;;;130.00;123.90;;;21.50;57.80;;;;;;5471696;26;20477;-66
2024/04/15 02:37:33;;;;;;;128.03;121.93;;;21.50;57.80;;;;;;5469180;26;20230;-66
2024/04/15 02:40:02;;;;;;;123.40;117.40;;;21.50;57.80;;;;;;5469327;26;20584;-66
2024/04/15 02:42:27;;;;;;;128.10;121.63;;;21.50;57.80;;;;;;5474644;26;20327;-66
2024/04/15 02:44:56;;;;;;;124.60;118.70;;;21.50;57.90;;;;;;5475669;26;20486;-65
2024/04/15 02:47:22;;;;;;;131.10;125.00;;;21.50;57.90;;;;;;5469983;26;20298;-65
2024/04/15 02:49:51;;;;;;;131.93;125.63;;;21.50;57.90;;;;;;5469239;26;20463;-66
2024/04/15 02:52:20;;;;;;;132.80;126.50;;;21.50;57.90;;;;;;5472534;26;20467;-66
2024/04/15 02:54:48;;;;;;;126.43;120.53;;;21.50;58.00;;;;;;5475392;26;20582;-66
2024/04/15 02:57:14;;;;;;;126.73;120.77;;;21.50;57.90;;;;;;5471712;26;20517;-65
2024/04/15 02:59:43;;;;;;;133.00;126.63;;;21.50;58.00;;;;;;5469088;26;20853;-65
2024/04/15 03:02:09;;;;;;;133.67;127.40;;;21.40;57.90;;;;;;5470873;26;20611;-65
2024/04/15 03:04:38;;;;;;;130.13;123.83;;;21.40;58.00;;;;;;5476037;26;20469;-65
2024/04/15 03:07:04;;;;;;;137.23;130.83;;;21.40;58.00;;;;;;5474252;26;20322;-65
2024/04/15 03:09:35;;;;;;;134.57;128.20;;;21.40;58.00;;;;;;5468889;26;20460;-66
2024/04/15 03:12:01;;;;;;;133.80;127.40;;;21.40;58.00;;;;;;5468622;26;21040;-66
2024/04/15 03:14:29;;;;;;;131.17;124.83;;;21.40;58.10;;;;;;5475075;26;20563;-66
2024/04/15 03:16:55;;;;;;;131.47;125.17;;;21.40;58.00;;;;;;5474610;26;20225;-66
2024/04/15 03:19:24;;;;;;;127.70;121.60;;;21.40;58.10;;;;;;5470517;26;20479;-66
2024/04/15 03:21:49;;;;;;;134.43;128.03;;;21.40;58.10;;;;;;5472404;26;20663;-65
2024/04/15 03:24:18;;;;;;;137.83;131.30;;;21.40;58.10;;;;;;5471582;26;20466;-65
2024/04/15 03:26:46;;;;;;;147.00;139.80;;;21.40;58.10;;;;;;5469162;26;20234;-65
2024/04/15 03:29:15;;;;;;;136.43;129.73;;;21.40;58.20;;;;;;5473320;26;20531;-65
2024/04/15 03:31:40;;;;;;;163.40;155.60;;;21.40;58.70;;;;;;5475798;26;21060;-65
2024/04/15 03:34:10;;;;;;;142.47;135.67;;;21.30;58.20;;;;;;5473560;26;20469;-66
2024/04/15 03:36:36;;;;;;;144.77;137.77;;;21.40;58.30;;;;;;5462385;26;20594;-65
2024/04/15 03:39:05;;;;;;;142.87;135.63;;;21.30;58.20;;;;;;5474799;26;20466;-66
2024/04/15 03:41:33;;;;;;;142.87;136.00;;;21.30;58.20;;;;;;5468121;26;20463;-65
2024/04/15 03:44:04;;;;;;;145.03;138.13;;;21.30;58.30;;;;;;5467851;26;20483;-65
2024/04/15 03:46:30;;;;;;;146.13;139.00;;;21.30;58.30;;;;;;5475371;26;20458;-65
2024/04/15 03:48:59;;;;;;;148.30;141.20;;;21.30;58.30;;;;;;5474903;26;20542;-66
2024/04/15 03:51:24;;;;;;;139.50;132.70;;;21.30;58.30;;;;;;5469129;26;20267;-65
2024/04/15 03:53:53;;;;;;;138.20;131.50;;;21.30;58.90;;;;;;5467442;26;20989;-65
2024/04/15 03:56:19;;;;;;;134.87;128.07;;;21.30;58.40;;;;;;5472667;26;20230;-65
2024/04/15 03:58:47;;;;;;;137.47;130.87;;;21.30;58.40;;;;;;5474695;26;20466;-65
2024/04/15 04:01:19;;;;;;;136.67;129.00;;;21.30;58.40;;;;;;5472005;26;20271;-66
2024/04/15 04:03:46;;;;;;;142.00;134.80;;;21.30;58.40;;;;;;5467780;26;20471;-65
2024/04/15 04:06:14;;;;;;;147.60;140.20;;;21.30;58.40;;;;;;5469984;26;20530;-66
2024/04/15 04:08:40;;;;;;;149.53;142.33;;;21.30;58.40;;;;;;5474663;26;20468;-65
2024/04/15 04:11:09;;;;;;;151.47;144.27;;;21.30;58.40;;;;;;5473657;26;20520;-66
2024/04/15 04:13:35;;;;;;;151.73;144.43;;;21.30;58.40;;;;;;5467491;26;20241;-67
2024/04/15 04:16:04;;;;;;;148.90;141.80;;;21.30;58.40;;;;;;5468300;26;20587;-66
2024/04/15 04:18:32;;;;;;;159.17;151.47;;;21.20;58.40;;;;;;5466908;26;20479;-66
2024/04/15 04:21:00;;;;;;;150.23;143.03;;;21.30;58.50;;;;;;5467951;26;20583;-65
2024/04/15 04:23:26;;;;;;;158.20;150.70;;;21.20;58.40;;;;;;5473132;26;20470;-65
2024/04/15 04:25:54;;;;;;;139.23;132.43;;;21.20;58.40;;;;;;5473969;26;20465;-65
2024/04/15 04:28:20;;;;;;;155.67;148.27;;;21.20;58.40;;;;;;5469940;26;20222;-65
2024/04/15 04:30:49;;;;;;;152.93;145.73;;;21.20;58.90;;;;;;5467985;26;20498;-65
2024/04/15 04:33:14;;;;;;;149.60;142.30;;;21.20;58.40;;;;;;5469888;26;20260;-66
2024/04/15 04:35:45;;;;;;;152.80;145.50;;;21.20;58.40;;;;;;5473687;26;20466;-67
2024/04/15 04:38:11;;;;;;;150.97;143.93;;;21.20;58.40;;;;;;5483036;26;20225;-67
2024/04/15 04:40:39;;;;;;;147.70;140.63;;;21.20;58.40;;;;;;5467827;26;20460;-66
2024/04/15 04:43:05;;;;;;;153.97;146.57;;;21.20;58.50;;;;;;5467403;26;21277;-67
2024/04/15 04:45:34;;;;;;;142.03;134.93;;;21.20;58.50;;;;;;5478920;26;20475;-66
2024/04/15 04:48:00;;;;;;;139.13;132.37;;;21.20;58.50;;;;;;5467517;26;20230;-66
2024/04/15 04:50:28;;;;;;;155.97;148.57;;;21.20;58.40;;;;;;5472774;26;20526;-67
2024/04/15 04:52:56;;;;;;;159.60;151.70;;;21.20;58.70;;;;;;5473411;26;20225;-67
2024/04/15 04:55:25;;;;;;;170.10;161.80;;;21.20;59.70;;;;;;5471796;26;20820;-66
2024/04/15 04:57:51;;;;;;;164.03;155.43;;;21.20;61.40;;;;;;5467206;26;21103;-66
2024/04/15 05:00:19;;;;;;;177.17;167.03;;;21.20;63.40;;;;;;5469358;26;20527;-66
2024/04/15 05:02:45;;;;;;;175.73;165.97;;;21.30;68.40;;;;;;5473126;26;20229;-67
2024/04/15 05:05:14;;;;;;;163.73;154.83;;;21.30;71.20;;;;;;5471983;26;20538;-67
2024/04/15 05:07:40;;;;;;;157.70;148.47;;;21.30;73.60;;;;;;5468120;26;20519;-67
2024/04/15 05:10:11;;;;;;;160.00;151.10;;;21.30;71.70;;;;;;5467252;26;20463;-68
2024/04/15 05:12:37;;;;;;;156.00;147.83;;;21.20;71.30;;;;;;5473159;26;20229;-66
2024/04/15 05:15:06;;;;;;;153.30;145.70;;;21.10;69.60;;;;;;5473494;26;20466;-66
2024/04/15 05:17:32;;;;;;;152.23;144.33;;;21.10;68.20;;;;;;5470619;26;20656;-66
2024/04/15 05:20:00;;;;;;;154.20;146.00;;;21.10;68.20;;;;;;5475514;26;20468;-66
2024/04/15 05:22:26;;;;;;;150.97;143.20;;;21.20;68.30;;;;;;5471551;26;20279;-66
2024/04/15 05:24:56;;;;;;;153.97;145.83;;;21.20;68.10;;;;;;5473364;26;20469;-66
2024/04/15 05:27:24;;;;;;;159.50;151.20;;;21.20;67.90;;;;;;5468893;26;20280;-66
2024/04/15 05:29:52;;;;;;;158.13;149.87;;;21.20;67.60;;;;;;5466854;26;21076;-65
2024/04/15 05:32:18;;;;;;;151.73;144.40;;;21.20;67.20;;;;;;5469157;26;20463;-67
2024/04/15 05:34:46;;;;;;;152.97;145.23;;;21.20;67.00;;;;;;5472893;26;20526;-67
2024/04/15 05:37:12;;;;;;;144.33;137.33;;;21.10;66.60;;;;;;5471865;26;20275;-67
2024/04/15 05:39:41;;;;;;;141.57;134.37;;;21.20;66.40;;;;;;5466655;26;20460;-67
2024/04/15 05:42:07;;;;;;;145.60;138.40;;;21.20;66.00;;;;;;5466598;26;20735;-67
2024/04/15 05:44:38;;;;;;;146.20;138.70;;;21.20;65.80;;;;;;5481807;26;20467;-68
2024/04/15 05:47:04;;;;;;;147.70;140.30;;;21.20;65.60;;;;;;5466838;26;20230;-68
2024/04/15 05:49:37;;;;;;;147.23;139.57;;;21.20;65.30;;;;;;5471898;26;20549;-68
2024/04/15 05:52:03;;;;;;;161.00;152.90;;;21.20;65.10;;;;;;5472694;26;20241;-66
2024/04/15 05:54:32;;;;;;;165.40;156.77;;;21.20;64.90;;;;;;5467416;26;20483;-66
2024/04/15 05:56:57;;;;;;;161.67;153.70;;;21.20;64.80;;;;;;5466637;26;20463;-66
2024/04/15 05:59:26;;;;;;;156.20;148.53;;;21.20;64.50;;;;;;5470628;26;20532;-66
2024/04/15 06:01:54;;;;;;;153.43;145.43;;;21.20;64.40;;;;;;5472154;26;20229;-66
2024/04/15 06:04:22;;;;;;;158.60;150.80;;;21.20;64.20;;;;;;5469734;26;20523;-65
2024/04/15 06:06:49;;;;;;;162.20;154.20;;;21.20;64.10;;;;;;5466530;26;20452;-66
2024/04/15 06:09:17;;;;;;;163.63;155.43;;;21.20;64.00;;;;;;5467775;26;20538;-66
2024/04/15 06:11:43;;;;;;;163.27;155.33;;;21.20;63.80;;;;;;5471984;26;20502;-66
2024/04/15 06:14:11;;;;;;;173.27;164.87;;;21.20;63.70;;;;;;5472432;26;20470;-66
2024/04/15 06:16:37;;;;;;;180.73;171.77;;;21.20;63.60;;;;;;5466137;26;20222;-66
2024/04/15 06:19:08;;;;;;;179.80;171.00;;;21.20;63.40;;;;;;5466229;26;21107;-65
2024/04/15 06:21:34;;;;;;;177.00;168.10;;;21.10;63.20;;;;;;5472199;26;20624;-66
2024/04/15 06:24:02;;;;;;;171.40;163.00;;;21.10;63.10;;;;;;5471820;26;21011;-65
2024/04/15 06:26:28;;;;;;;169.67;161.43;;;21.20;63.10;;;;;;5467617;26;20225;-66
2024/04/15 06:28:57;;;;;;;181.33;172.63;;;21.20;63.00;;;;;;5465870;26;20510;-65
2024/04/15 06:31:23;;;;;;;178.83;170.23;;;21.20;62.80;;;;;;5469002;26;20226;-65
2024/04/15 06:33:51;;;;;;;170.10;161.70;;;21.20;62.70;;;;;;5471559;26;21117;-65
2024/04/15 06:36:19;;;;;;;174.93;166.50;;;21.20;62.60;;;;;;5470172;26;20800;-66
2024/04/15 06:38:48;;;;;;;175.47;167.07;;;21.10;62.40;;;;;;5465761;26;20464;-66
2024/04/15 06:41:14;;;;;;;175.10;166.80;;;21.10;62.40;;;;;;5466553;26;20472;-65
2024/04/15 06:43:42;;;;;;;170.53;162.50;;;21.10;62.40;;;;;;5471332;26;20462;-65
2024/04/15 06:46:08;;;;;;;175.00;166.60;;;21.20;62.30;;;;;;5471972;26;20458;-65
2024/04/15 06:48:37;;;;;;;171.00;162.70;;;21.20;62.20;;;;;;5465797;26;20516;-65
2024/04/15 06:51:04;;;;;;;174.83;166.37;;;21.10;62.00;;;;;;5465814;26;20261;-66
2024/04/15 06:53:35;;;;;;;185.10;176.30;;;21.10;62.00;;;;;;5469591;26;20467;-65
2024/04/15 06:56:00;;;;;;;177.97;169.57;;;21.10;62.00;;;;;;5471647;26;20458;-65
2024/04/15 06:58:29;;;;;;;173.53;165.13;;;21.10;61.90;;;;;;5467765;26;20466;-65
2024/04/15 07:00:56;;;;;;;170.87;162.83;;;21.10;61.90;;;;;;5465305;26;20355;-66
2024/04/15 07:03:25;;;;;;;174.57;165.87;;;21.10;62.00;;;;;;5467239;26;20527;-66
2024/04/15 07:05:51;;;;;;;178.47;169.93;;;21.10;61.90;;;;;;5471532;26;20642;-66
2024/04/15 07:08:19;;;;;;;170.23;162.03;;;21.10;61.70;;;;;;5470149;26;20512;-66
2024/04/15 07:10:48;;;;;;;179.60;171.10;;;21.10;61.70;;;;;;5465202;26;20467;-67
2024/04/15 07:13:16;;;;;;;168.80;160.70;;;21.10;61.70;;;;;;5464977;26;20526;-66
2024/04/15 07:15:42;;;;;;;166.50;158.40;;;21.10;61.60;;;;;;5471232;26;20570;-67
2024/04/15 07:18:10;;;;;;;167.80;159.80;;;21.10;61.50;;;;;;5471374;26;20466;-68
2024/04/15 07:20:36;;;;;;;170.63;162.30;;;21.10;61.50;;;;;;5465348;26;20606;-67
2024/04/15 07:23:04;;;;;;;172.50;164.33;;;21.10;61.40;;;;;;5467146;26;20515;-67
2024/04/15 07:25:30;;;;;;;174.00;165.70;;;21.10;61.40;;;;;;5473232;26;20563;-67
2024/04/15 07:28:01;;;;;;;174.40;166.20;;;21.10;61.30;;;;;;5474930;26;20530;-68
2024/04/15 07:30:27;;;;;;;169.33;161.33;;;21.10;61.20;;;;;;5470982;26;20657;-68
2024/04/15 07:32:55;;;;;;;175.23;166.90;;;21.10;61.30;;;;;;5468202;26;20577;-68
2024/04/15 07:35:21;;;;;;;179.23;170.73;;;21.10;61.10;;;;;;5470291;26;20230;-68
2024/04/15 07:37:50;;;;;;;165.23;157.23;;;21.10;61.10;;;;;;5474970;26;20518;-67
2024/04/15 07:40:16;;;;;;;160.10;152.50;;;21.00;61.10;;;;;;5473969;26;20708;-67
2024/04/15 07:42:44;;;;;;;174.67;166.40;;;21.10;61.10;;;;;;5468106;26;20463;-67
2024/04/15 07:45:12;;;;;;;168.43;160.63;;;21.10;61.00;;;;;;5468586;26;20576;-68
2024/04/15 07:47:41;;;;;;;171.57;163.47;;;21.10;60.90;;;;;;5474669;26;20609;-67
2024/04/15 07:50:07;;;;;;;176.33;168.33;;;21.10;60.90;;;;;;5474642;26;20462;-67
2024/04/15 07:52:35;;;;;;;168.93;160.73;;;21.10;60.80;;;;;;5469307;26;20909;-68
2024/04/15 07:55:01;;;;;;;172.77;164.57;;;21.10;60.90;;;;;;5468372;26;20464;-68
2024/04/15 07:57:29;;;;;;;169.10;161.00;;;21.10;61.10;;;;;;5471594;26;20518;-67
2024/04/15 07:59:55;;;;;;;167.17;159.07;;;21.10;60.80;;;;;;5474701;26;20362;-68
2024/04/15 08:02:28;;;;;;;164.40;156.50;;;21.10;60.80;;;;;;5472613;26;20469;-68
2024/04/15 08:04:53;;;;;;;162.40;154.40;;;21.00;60.50;;;;;;5468393;26;20285;-67
2024/04/15 08:07:22;;;;;;;164.90;157.10;;;21.10;60.70;;;;;;5469495;26;20576;-67
2024/04/15 08:09:49;;;;;;;159.47;151.97;;;21.10;60.60;;;;;;5474517;26;20249;-68
2024/04/15 08:12:18;;;;;;;156.67;149.07;;;21.10;60.50;;;;;;5473714;26;21051;-68
2024/04/15 08:14:43;;;;;;;159.43;151.83;;;21.00;60.40;;;;;;5467915;26;20517;-67
2024/04/15 08:17:12;;;;;;;154.90;147.47;;;21.00;60.30;;;;;;5468074;26;20468;-67
2024/04/15 08:19:40;;;;;;;161.87;154.07;;;21.10;60.50;;;;;;5473345;26;20229;-67
2024/04/15 08:22:08;;;;;;;152.83;145.53;;;21.00;60.40;;;;;;5473801;26;20470;-67
2024/04/15 08:24:34;;;;;;;160.47;152.87;;;21.00;60.30;;;;;;5469276;26;20465;-67
2024/04/15 08:27:02;;;;;;;154.33;146.80;;;21.10;60.50;;;;;;5467877;26;21058;-67
2024/04/15 08:29:28;;;;;;;152.77;145.47;;;21.00;60.30;;;;;;5471129;26;20568;-67
2024/04/15 08:31:57;;;;;;;164.77;156.77;;;21.00;61.00;;;;;;5473603;26;20460;-67
2024/04/15 08:34:23;;;;;;;167.20;159.30;;;21.10;60.20;;;;;;5470328;26;20237;-67
2024/04/15 08:36:54;;;;;;;151.63;144.33;;;21.10;60.10;;;;;;5467543;26;20508;-67
2024/04/15 08:39:19;;;;;;;162.20;154.60;;;21.00;60.00;;;;;;5468401;26;20464;-67
2024/04/15 08:41:52;;;;;;;172.00;164.00;;;21.10;60.10;;;;;;5473354;26;20592;-66
2024/04/15 08:44:24;;;;;;;151.37;144.17;;;21.10;60.10;;;;;;5473126;26;20228;-66
2024/04/15 08:46:54;;;;;;;150.33;143.23;;;21.10;60.10;;;;;;5467520;26;21049;-67
2024/04/15 08:49:20;;;;;;;157.50;150.10;;;21.10;60.10;;;;;;5468534;26;20575;-67
2024/04/15 08:51:49;;;;;;;157.27;149.77;;;21.10;60.00;;;;;;5473319;26;20466;-66
2024/04/15 08:54:17;;;;;;;161.33;153.70;;;21.10;60.00;;;;;;5473691;26;20275;-67
2024/04/15 08:56:46;;;;;;;158.57;150.83;;;21.00;59.90;;;;;;5473964;26;20996;-67
2024/04/15 08:59:15;;;;;;;146.93;139.93;;;21.00;59.90;;;;;;5473573;26;20466;-67
2024/04/15 09:01:44;;;;;;;153.43;146.13;;;21.10;59.90;;;;;;5467663;26;20881;-67
2024/04/15 09:04:11;;;;;;;158.37;150.97;;;21.10;59.90;;;;;;5467264;26;20523;-67
2024/04/15 09:06:40;;;;;;;164.50;156.80;;;21.10;59.90;;;;;;5472331;26;21012;-67
2024/04/15 09:09:05;;;;;;;164.97;157.37;;;21.10;59.80;;;;;;5473400;26;20461;-67
2024/04/15 09:11:38;;;;;;;162.20;154.73;;;21.10;59.90;;;;;;5469899;26;20462;-67
2024/04/15 09:14:04;;;;;;;153.83;146.20;;;21.00;59.80;;;;;;5466855;26;20280;-67
2024/04/15 09:16:32;;;;;;;159.83;151.80;;;21.10;59.80;;;;;;5470277;26;20463;-67
2024/04/15 09:18:58;;;;;;;152.23;144.90;;;21.10;59.80;;;;;;5473189;26;20233;-67
2024/04/15 09:21:27;;;;;;;161.57;153.93;;;21.10;59.80;;;;;;5471811;26;20560;-67
2024/04/15 09:23:54;;;;;;;156.67;149.27;;;21.10;59.70;;;;;;5466360;26;20483;-67
2024/04/15 09:26:22;;;;;;;160.93;153.13;;;21.10;59.80;;;;;;5467409;26;20468;-66
2024/04/15 09:28:51;;;;;;;158.70;151.10;;;21.10;59.70;;;;;;5473292;26;20453;-67
2024/04/15 09:31:21;;;;;;;158.40;150.80;;;21.00;59.70;;;;;;5473333;26;20450;-68
2024/04/15 09:33:47;;;;;;;156.33;148.80;;;21.00;59.60;;;;;;5473452;26;20462;-67
2024/04/15 09:36:17;;;;;;;154.23;146.93;;;21.10;59.70;;;;;;5473335;26;20508;-68
2024/04/15 09:38:44;;;;;;;150.80;143.60;;;21.10;59.70;;;;;;5467006;26;20557;-67
2024/04/15 09:41:14;;;;;;;146.80;139.90;;;21.10;59.60;;;;;;5466752;26;20527;-68
2024/04/15 09:43:44;;;;;;;158.03;150.73;;;21.10;59.70;;;;;;5471409;26;20856;-68
2024/04/15 09:46:15;;;;;;;159.97;152.33;;;21.10;59.60;;;;;;5472487;26;20533;-67
2024/04/15 09:48:43;;;;;;;156.20;148.90;;;21.10;59.60;;;;;;5467843;26;20581;-67
2024/04/15 09:51:21;;;;;;;149.93;142.90;;;21.10;59.60;;;;;;5466707;26;20471;-67
2024/04/15 09:53:50;;;;;;;159.50;152.00;;;21.10;59.60;;;;;;5466114;26;20526;-66
2024/04/15 09:56:26;;;;;;;160.30;152.70;;;21.10;59.60;;;;;;5480988;26;20868;-68
2024/04/15 09:58:55;;;;;;;171.93;164.03;;;21.00;59.50;;;;;;5474902;26;20457;-67
2024/04/15 10:01:31;;;;;;;169.73;161.93;;;21.00;59.50;;;;;;5472619;26;20852;-67
2024/04/15 10:04:01;;;;;;;169.60;161.60;;;21.10;59.50;;;;;;5465907;26;20512;-68
2024/04/15 10:06:34;;;;;;;171.60;163.50;;;21.10;59.50;;;;;;5468126;26;20559;-68
2024/04/15 10:09:00;;;;;;;179.53;171.13;;;21.10;59.50;;;;;;5472895;26;20544;-67
2024/04/15 10:11:30;;;;;;;173.50;165.30;;;21.10;59.50;;;;;;5471083;26;20533;-67
2024/04/15 10:13:57;;;;;;;169.93;161.93;;;21.10;59.50;;;;;;5465705;26;20515;-68
2024/04/15 10:16:28;;;;;;;164.50;156.60;;;21.00;59.40;;;;;;5466932;26;20479;-68
2024/04/15 10:18:58;;;;;;;159.27;151.40;;;21.00;59.40;;;;;;5472731;26;20466;-68
2024/04/15 10:21:27;;;;;;;153.70;146.40;;;21.00;59.40;;;;;;5471400;26;20579;-68
2024/04/15 10:23:54;;;;;;;158.93;151.33;;;21.00;59.30;;;;;;5465616;26;20467;-67
2024/04/15 10:26:24;;;;;;;163.10;155.40;;;21.00;59.40;;;;;;5466268;26;20516;-68
2024/04/15 10:29:08;;;;;;;152.00;144.70;;;21.10;59.40;;;;;;5480087;26;20475;-67
2024/04/15 10:31:44;;;;;;;158.17;150.57;;;21.00;59.30;;;;;;5469325;26;20519;-65
2024/04/15 10:34:14;;;;;;;165.73;157.87;;;21.00;59.30;;;;;;5471780;26;20529;-67
2024/04/15 10:36:43;;;;;;;159.87;152.33;;;21.10;59.40;;;;;;5467496;26;20473;-68
2024/04/15 10:39:15;;;;;;;164.57;156.57;;;21.10;59.30;;;;;;5465677;26;20471;-68
2024/04/15 10:41:45;;;;;;;164.77;156.77;;;21.00;59.20;;;;;;5470523;26;20467;-68
2024/04/15 10:44:11;;;;;;;165.37;157.37;;;21.00;59.80;;;;;;5472096;26;20987;-68
2024/04/15 10:46:46;;;;;;;163.50;155.70;;;21.10;59.30;;;;;;5468250;26;20454;-68
2024/04/15 10:49:13;;;;;;;158.53;150.90;;;21.00;59.30;;;;;;5465819;26;20474;-68
2024/04/15 10:51:41;;;;;;;155.70;148.20;;;21.00;59.20;;;;;;5469790;26;20479;-67
2024/04/15 10:54:07;;;;;;;156.73;149.33;;;21.00;59.20;;;;;;5471242;26;20828;-68
2024/04/15 10:56:36;;;;;;;163.90;156.10;;;21.00;59.20;;;;;;5469319;26;20591;-68
2024/04/15 10:59:02;;;;;;;164.63;156.83;;;21.00;59.20;;;;;;5468910;26;20515;-68
2024/04/15 11:01:30;;;;;;;163.63;155.67;;;21.10;59.20;;;;;;5470437;26;20467;-68
2024/04/15 11:04:05;;;;;;;164.97;156.97;;;21.10;59.10;;;;;;5475011;26;20337;-67
2024/04/15 11:06:33;;;;;;;163.27;155.57;;;21.10;59.10;;;;;;5473309;26;20533;-68
2024/04/15 11:09:00;;;;;;;166.47;158.60;;;21.10;59.10;;;;;;5468973;26;20455;-68
2024/04/15 11:11:28;;;;;;;161.70;154.00;;;21.00;59.10;;;;;;5469566;26;20467;-68
2024/04/15 11:13:55;;;;;;;165.20;157.30;;;21.00;59.10;;;;;;5474665;26;20897;-67
2024/04/15 11:16:23;;;;;;;163.33;155.57;;;21.00;59.10;;;;;;5475068;26;20474;-67
2024/04/15 11:18:49;;;;;;;161.90;154.30;;;21.00;59.10;;;;;;5475244;26;20458;-67
2024/04/15 11:21:20;;;;;;;152.87;145.53;;;21.10;59.10;;;;;;5475097;26;20519;-68
2024/04/15 11:23:47;;;;;;;149.80;142.63;;;21.10;59.10;;;;;;5468529;26;20467;-68
2024/04/15 11:26:19;;;;;;;150.20;143.10;;;21.00;59.00;;;;;;5468633;26;20572;-68
2024/04/15 11:28:45;;;;;;;152.87;145.67;;;21.00;59.00;;;;;;5473872;26;20462;-67
2024/04/15 11:31:14;;;;;;;158.30;150.80;;;21.10;59.10;;;;;;5474669;26;20921;-68
2024/04/15 11:33:39;;;;;;;156.53;149.03;;;21.10;59.10;;;;;;5470167;26;20514;-67
2024/04/15 11:36:16;;;;;;;158.90;151.33;;;21.00;59.00;;;;;;5468540;26;20814;-68
2024/04/15 11:38:44;;;;;;;146.10;139.13;;;21.10;59.00;;;;;;5472971;26;20229;-68
2024/04/15 11:41:13;;;;;;;150.33;143.10;;;21.10;59.00;;;;;;5475065;26;20591;-68
2024/04/15 11:43:40;;;;;;;157.60;150.10;;;21.10;58.90;;;;;;5470695;26;20462;-68
2024/04/15 11:46:17;;;;;;;153.80;146.20;;;21.10;58.90;;;;;;5468392;26;20468;-68
2024/04/15 11:48:43;;;;;;;157.77;150.07;;;21.10;58.90;;;;;;5472901;26;20514;-67
2024/04/15 11:51:13;;;;;;;162.33;154.67;;;21.10;58.90;;;;;;5474703;26;20458;-66
2024/04/15 11:53:40;;;;;;;139.10;132.20;;;21.10;58.90;;;;;;5470716;26;20613;-67
2024/04/15 11:56:13;;;;;;;146.80;139.70;;;21.10;58.80;;;;;;5468181;26;21057;-67
2024/04/15 11:58:39;;;;;;;160.37;152.83;;;21.10;58.80;;;;;;5471687;26;20463;-68
2024/04/15 12:01:08;;;;;;;158.10;150.53;;;21.10;58.80;;;;;;5474492;26;20466;-68
2024/04/15 12:03:34;;;;;;;152.20;144.90;;;21.10;58.80;;;;;;5471588;26;20466;-67
2024/04/15 12:06:05;;;;;;;154.20;146.90;;;21.10;58.80;;;;;;5468260;26;21092;-68
2024/04/15 12:08:31;;;;;;;162.43;154.83;;;21.10;59.40;;;;;;5468986;26;20535;-66
2024/04/15 12:11:00;;;;;;;152.00;144.90;;;21.10;58.80;;;;;;5474514;26;20595;-68
2024/04/15 12:13:28;;;;;;;164.03;156.23;;;21.10;58.90;;;;;;5473843;26;20507;-68